Time;durP1;ratioP1;P1;durP2;ratioP2;P2;SDS_P1;SDS_P2;PMS_P1;PMS_P2;Temp;Humidity;BMP_temperature;BMP_pressure;BME280_temperature;BME280_humidity;BME280_pressure;Samples;Min_cycle;Max_cycle;Signal;HPM_P1;HPM_P2
2023/04/25 00:02:00;;;;;;;4.47;2.45;;;10.10;99.90;;;;;;4994315;28;20045;-75
2023/04/25 00:04:27;;;;;;;3.30;2.58;;;10.00;99.90;;;;;;4993713;28;20033;-75
2023/04/25 00:06:54;;;;;;;4.45;2.42;;;10.00;99.90;;;;;;4995639;28;20037;-75
2023/04/25 00:09:19;;;;;;;4.65;2.30;;;10.00;99.90;;;;;;4994232;28;20121;-75
2023/04/25 00:11:45;;;;;;;2.72;2.22;;;10.10;99.90;;;;;;4994214;28;20169;-75
2023/04/25 00:14:11;;;;;;;3.55;2.42;;;10.00;99.90;;;;;;4995363;28;20041;-75
2023/04/25 00:16:36;;;;;;;2.83;2.05;;;10.00;99.90;;;;;;4994799;28;20110;-75
2023/04/25 00:19:02;;;;;;;3.53;2.47;;;10.00;99.90;;;;;;4995452;28;20030;-75
2023/04/25 00:21:28;;;;;;;4.15;2.72;;;10.10;99.90;;;;;;4993272;28;20027;-75
2023/04/25 00:23:55;;;;;;;4.07;2.45;;;10.10;99.90;;;;;;4993181;28;20027;-75
2023/04/25 00:26:20;;;;;;;3.10;2.50;;;10.10;99.90;;;;;;4994764;28;20527;-75
2023/04/25 00:28:47;;;;;;;4.63;2.33;;;10.10;99.90;;;;;;4994274;28;20117;-75
2023/04/25 00:31:13;;;;;;;3.30;2.58;;;10.10;99.90;;;;;;4993449;28;20027;-75
2023/04/25 00:33:38;;;;;;;4.20;2.67;;;10.10;99.90;;;;;;4993083;28;20038;-75
2023/04/25 00:36:05;;;;;;;4.10;2.40;;;10.10;99.90;;;;;;5009874;28;20439;-75
2023/04/25 00:38:30;;;;;;;5.93;2.60;;;10.00;99.90;;;;;;4992968;28;20123;-75
2023/04/25 00:40:57;;;;;;;3.97;2.42;;;10.10;99.90;;;;;;4993617;28;20463;-75
2023/04/25 00:43:25;;;;;;;3.28;2.45;;;10.10;99.90;;;;;;4994457;28;20460;-75
2023/04/25 00:45:52;;;;;;;2.97;2.35;;;10.00;99.90;;;;;;4994285;28;20030;-77
2023/04/25 00:48:21;;;;;;;3.20;2.40;;;10.00;99.90;;;;;;4994784;28;20503;-77
2023/04/25 00:50:59;;;;;;;3.35;2.10;;;10.00;99.90;;;;;;4993722;28;20391;-77
2023/04/25 00:53:27;;;;;;;3.13;2.30;;;10.00;99.90;;;;;;4994459;28;20456;-76
2023/04/25 00:55:54;;;;;;;3.72;2.38;;;10.00;99.90;;;;;;4994319;28;20026;-77
2023/04/25 00:58:21;;;;;;;3.22;2.17;;;10.00;99.90;;;;;;4993423;28;20026;-77
2023/04/25 01:00:48;;;;;;;2.83;2.15;;;10.00;99.90;;;;;;4993463;28;20034;-78
2023/04/25 01:03:19;;;;;;;3.13;1.95;;;10.00;99.90;;;;;;4993373;28;20480;-77
2023/04/25 01:05:45;;;;;;;3.22;2.40;;;10.00;99.90;;;;;;4992508;28;20117;-76
2023/04/25 01:08:12;;;;;;;3.35;2.50;;;10.00;99.90;;;;;;5009353;28;20174;-77
2023/04/25 01:10:38;;;;;;;3.22;2.53;;;10.00;99.90;;;;;;4992153;28;20038;-76
2023/04/25 01:13:04;;;;;;;3.83;2.33;;;10.00;99.90;;;;;;4993074;28;20117;-77
2023/04/25 01:15:30;;;;;;;2.83;2.03;;;9.90;99.90;;;;;;4993418;28;20030;-76
2023/04/25 01:17:57;;;;;;;3.45;2.58;;;10.00;99.90;;;;;;4992863;28;20080;-76
2023/04/25 01:20:24;;;;;;;4.10;2.60;;;9.90;99.90;;;;;;4976890;28;20034;-76
2023/04/25 01:22:51;;;;;;;3.30;2.17;;;9.90;99.90;;;;;;4991826;28;20092;-76
2023/04/25 01:25:17;;;;;;;5.28;2.45;;;9.90;99.90;;;;;;4992479;28;20427;-77
2023/04/25 01:27:43;;;;;;;5.78;2.60;;;9.90;99.90;;;;;;4991964;28;20034;-76
2023/04/25 01:30:09;;;;;;;4.07;2.70;;;9.80;99.90;;;;;;4992677;28;20070;-77
2023/04/25 01:32:39;;;;;;;4.63;2.60;;;9.80;99.90;;;;;;4993179;28;20046;-77
2023/04/25 01:35:09;;;;;;;4.63;2.70;;;9.80;99.90;;;;;;4991721;28;20068;-74
2023/04/25 01:37:45;;;;;;;4.38;2.50;;;9.80;99.90;;;;;;4991860;28;20031;-77
2023/04/25 01:40:12;;;;;;;3.35;2.40;;;9.80;99.90;;;;;;4992650;28;20034;-77
2023/04/25 01:42:41;;;;;;;4.45;2.22;;;9.80;99.90;;;;;;4991187;28;20030;-77
2023/04/25 01:45:07;;;;;;;3.95;2.10;;;9.80;99.90;;;;;;4993423;28;20479;-77
2023/04/25 01:47:37;;;;;;;4.05;2.60;;;9.80;99.90;;;;;;4991341;28;20085;-76
2023/04/25 01:50:04;;;;;;;4.15;2.72;;;9.80;99.90;;;;;;4993356;28;20031;-77
2023/04/25 01:52:29;;;;;;;3.70;2.85;;;9.80;99.90;;;;;;4991881;28;20027;-76
2023/04/25 01:54:57;;;;;;;3.65;2.80;;;9.80;99.90;;;;;;4992068;28;20491;-77
2023/04/25 01:57:23;;;;;;;3.63;2.72;;;9.80;99.90;;;;;;4992223;28;20026;-77
2023/04/25 01:59:49;;;;;;;4.32;2.55;;;9.80;99.90;;;;;;4991448;28;20109;-76
2023/04/25 02:02:15;;;;;;;3.58;2.63;;;9.80;99.90;;;;;;4993092;28;20041;-77
2023/04/25 02:04:40;;;;;;;3.50;2.67;;;9.80;99.90;;;;;;4992632;28;20034;-77
2023/04/25 02:07:06;;;;;;;4.53;2.47;;;9.80;99.90;;;;;;4993501;28;20030;-77
2023/04/25 02:09:32;;;;;;;4.35;2.78;;;9.80;99.90;;;;;;4992338;28;20057;-77
2023/04/25 02:11:58;;;;;;;5.30;2.85;;;9.80;99.90;;;;;;4993588;28;20530;-77
2023/04/25 02:14:23;;;;;;;6.30;2.80;;;9.90;99.90;;;;;;5008301;28;20038;-77
2023/04/25 02:16:51;;;;;;;4.72;2.85;;;9.80;99.90;;;;;;4991217;28;20650;-77
2023/04/25 02:19:16;;;;;;;5.88;3.08;;;9.80;99.90;;;;;;4993065;28;20113;-76
2023/04/25 02:21:42;;;;;;;4.93;2.92;;;9.80;99.90;;;;;;4991220;28;20061;-76
2023/04/25 02:24:08;;;;;;;4.18;2.85;;;9.80;99.90;;;;;;4991817;28;20386;-77
2023/04/25 02:26:33;;;;;;;5.30;2.95;;;9.70;99.90;;;;;;4992680;28;20033;-76
2023/04/25 02:28:59;;;;;;;5.10;3.35;;;9.60;99.90;;;;;;4991713;28;20030;-77
2023/04/25 02:31:25;;;;;;;5.38;3.47;;;9.60;99.90;;;;;;5008279;28;20026;-77
2023/04/25 02:33:51;;;;;;;4.30;2.90;;;9.60;99.90;;;;;;5007281;28;20023;-76
2023/04/25 02:36:17;;;;;;;6.38;2.90;;;9.60;99.90;;;;;;4991418;28;20034;-77
2023/04/25 02:38:42;;;;;;;4.85;2.85;;;9.60;99.90;;;;;;5007331;28;20084;-77
2023/04/25 02:41:08;;;;;;;6.03;3.22;;;9.60;99.90;;;;;;4992807;28;20456;-76
2023/04/25 02:43:33;;;;;;;4.40;2.65;;;9.60;99.90;;;;;;4991168;28;20122;-76
2023/04/25 02:45:59;;;;;;;4.68;2.78;;;9.60;99.90;;;;;;4992045;28;20080;-77
2023/04/25 02:48:25;;;;;;;3.90;2.85;;;9.50;99.90;;;;;;4995433;28;20061;-77
2023/04/25 02:50:50;;;;;;;3.90;2.90;;;9.60;99.90;;;;;;4994764;28;20937;-76
2023/04/25 02:53:16;;;;;;;3.70;2.70;;;9.60;99.90;;;;;;4996690;28;20519;-76
2023/04/25 02:55:41;;;;;;;4.78;3.03;;;9.60;99.90;;;;;;4996003;28;20042;-77
2023/04/25 02:58:07;;;;;;;3.65;2.53;;;9.60;99.90;;;;;;4995275;28;20400;-77
2023/04/25 03:00:33;;;;;;;6.00;3.03;;;9.50;99.90;;;;;;4996445;28;20117;-77
2023/04/25 03:02:58;;;;;;;8.52;3.38;;;9.60;99.90;;;;;;4995024;28;20033;-74
2023/04/25 03:05:24;;;;;;;5.75;3.03;;;9.50;99.90;;;;;;4995669;28;20375;-74
2023/04/25 03:07:49;;;;;;;3.42;2.78;;;9.50;99.90;;;;;;4994419;28;20031;-74
2023/04/25 03:10:15;;;;;;;4.40;2.75;;;9.50;99.90;;;;;;4995348;28;20042;-74
2023/04/25 03:12:41;;;;;;;4.97;3.10;;;9.60;99.90;;;;;;4994129;28;20435;-74
2023/04/25 03:15:07;;;;;;;5.80;2.83;;;9.40;99.90;;;;;;5011436;28;20135;-75
2023/04/25 03:17:33;;;;;;;5.28;2.88;;;9.50;99.90;;;;;;4996410;28;20392;-75
2023/04/25 03:19:58;;;;;;;5.30;3.20;;;9.50;99.90;;;;;;5010927;28;20034;-74
2023/04/25 03:22:24;;;;;;;4.55;3.00;;;9.40;99.90;;;;;;5011475;28;20468;-74
2023/04/25 03:24:50;;;;;;;4.90;3.20;;;9.40;99.90;;;;;;4994223;28;20022;-75
2023/04/25 03:27:16;;;;;;;3.58;2.90;;;9.40;99.90;;;;;;4995006;28;20030;-74
2023/04/25 03:29:42;;;;;;;4.95;2.92;;;9.40;99.90;;;;;;4993993;28;20038;-75
2023/04/25 03:32:07;;;;;;;4.03;2.97;;;9.40;99.90;;;;;;4996151;28;20038;-75
2023/04/25 03:34:33;;;;;;;5.72;3.38;;;9.40;99.90;;;;;;4995957;28;20117;-75
2023/04/25 03:36:59;;;;;;;4.40;2.85;;;9.40;99.90;;;;;;4994156;28;20353;-75
2023/04/25 03:39:25;;;;;;;4.10;3.10;;;9.40;99.90;;;;;;4994755;28;20038;-75
2023/04/25 03:41:51;;;;;;;4.47;3.08;;;9.40;99.90;;;;;;4994962;28;20030;-75
2023/04/25 03:44:16;;;;;;;4.63;3.00;;;9.40;99.90;;;;;;5011034;28;20035;-75
2023/04/25 03:46:42;;;;;;;6.18;2.97;;;9.40;99.90;;;;;;4993921;28;20341;-74
2023/04/25 03:49:07;;;;;;;6.93;3.10;;;9.40;99.90;;;;;;4995473;28;20050;-75
2023/04/25 03:51:33;;;;;;;5.28;3.47;;;9.40;99.90;;;;;;5010772;28;20042;-75
2023/04/25 03:53:59;;;;;;;6.38;3.35;;;9.40;99.90;;;;;;4993785;28;20399;-74
2023/04/25 03:56:24;;;;;;;4.60;3.20;;;9.40;99.90;;;;;;4995751;28;20033;-75
2023/04/25 03:58:50;;;;;;;4.78;3.33;;;9.40;99.90;;;;;;4992556;28;20032;-74
2023/04/25 04:01:15;;;;;;;5.82;3.28;;;9.40;99.90;;;;;;4995635;28;20439;-75
2023/04/25 04:03:41;;;;;;;3.97;3.22;;;9.40;99.90;;;;;;4994658;28;20036;-74
2023/04/25 04:06:08;;;;;;;6.47;3.03;;;9.40;99.90;;;;;;4995619;28;20510;-75
2023/04/25 04:08:34;;;;;;;3.90;3.05;;;9.40;99.90;;;;;;4995268;28;20045;-75
2023/04/25 04:10:59;;;;;;;5.05;3.33;;;9.40;99.90;;;;;;4994525;28;20046;-75
2023/04/25 04:13:29;;;;;;;5.72;3.00;;;9.40;99.90;;;;;;4994150;28;20027;-75
2023/04/25 04:15:55;;;;;;;4.75;3.00;;;9.40;99.90;;;;;;4994595;28;20047;-75
2023/04/25 04:18:21;;;;;;;4.45;3.20;;;9.40;99.90;;;;;;4995450;28;20035;-75
2023/04/25 04:20:47;;;;;;;3.78;2.53;;;9.40;99.90;;;;;;4994417;28;20027;-75
2023/04/25 04:23:13;;;;;;;4.60;3.30;;;9.40;99.90;;;;;;4995350;28;20117;-75
2023/04/25 04:25:39;;;;;;;4.18;2.75;;;9.30;99.90;;;;;;4993613;28;20037;-73
2023/04/25 04:28:05;;;;;;;5.43;2.78;;;9.30;99.90;;;;;;4993542;28;20026;-75
2023/04/25 04:30:33;;;;;;;4.20;2.78;;;9.40;99.90;;;;;;4995012;28;20491;-75
2023/04/25 04:33:00;;;;;;;4.38;2.80;;;9.40;99.90;;;;;;4994311;28;20018;-74
2023/04/25 04:35:26;;;;;;;3.03;2.33;;;9.40;99.90;;;;;;4993744;28;20479;-75
2023/04/25 04:37:52;;;;;;;5.38;2.72;;;9.40;99.90;;;;;;4993876;28;20054;-74
2023/04/25 04:40:18;;;;;;;4.03;3.10;;;9.50;99.90;;;;;;4993603;28;20123;-75
2023/04/25 04:42:47;;;;;;;4.15;3.10;;;9.40;99.90;;;;;;4992666;28;20428;-74
2023/04/25 04:45:14;;;;;;;4.80;2.88;;;9.40;99.90;;;;;;4994716;28;20030;-75
2023/04/25 04:47:40;;;;;;;5.18;2.90;;;9.50;99.90;;;;;;4992863;28;20085;-74
2023/04/25 04:50:10;;;;;;;4.47;2.88;;;9.40;99.90;;;;;;5009604;28;20117;-75
2023/04/25 04:52:38;;;;;;;4.68;3.40;;;9.50;99.90;;;;;;4993695;28;20065;-75
2023/04/25 04:55:05;;;;;;;5.50;3.30;;;9.50;99.90;;;;;;5009210;28;20460;-75
2023/04/25 04:57:32;;;;;;;4.60;3.33;;;9.50;99.90;;;;;;4994582;28;20030;-75
2023/04/25 04:59:58;;;;;;;4.65;3.38;;;9.50;99.90;;;;;;4993753;28;20026;-75
2023/04/25 05:02:24;;;;;;;5.60;3.20;;;9.50;99.90;;;;;;4993070;28;20037;-75
2023/04/25 05:04:51;;;;;;;4.97;3.28;;;9.50;99.90;;;;;;4993649;28;20030;-74
2023/04/25 05:07:17;;;;;;;4.35;3.25;;;9.50;99.90;;;;;;4993306;28;20029;-75
2023/04/25 05:09:43;;;;;;;4.22;2.92;;;9.50;99.90;;;;;;4992064;28;20125;-74
2023/04/25 05:12:08;;;;;;;5.90;3.20;;;9.50;99.90;;;;;;4992760;28;20468;-75
2023/04/25 05:14:34;;;;;;;4.47;2.97;;;9.60;99.90;;;;;;4994549;28;20109;-75
2023/04/25 05:17:00;;;;;;;7.93;3.13;;;9.50;99.90;;;;;;4993516;28;20236;-75
2023/04/25 05:19:26;;;;;;;5.75;3.47;;;9.60;99.90;;;;;;4992861;28;20077;-75
2023/04/25 05:21:52;;;;;;;4.20;3.25;;;9.60;99.90;;;;;;4993131;28;20105;-74
2023/04/25 05:24:17;;;;;;;7.25;3.53;;;9.70;99.90;;;;;;4994021;28;20571;-74
2023/04/25 05:26:43;;;;;;;6.07;3.40;;;9.80;99.90;;;;;;4993317;28;20053;-74
2023/04/25 05:29:09;;;;;;;4.82;3.10;;;9.80;99.90;;;;;;4993895;28;20464;-74
2023/04/25 05:31:36;;;;;;;5.47;3.20;;;9.80;99.90;;;;;;4993908;28;20109;-75
2023/04/25 05:34:02;;;;;;;6.03;3.85;;;9.90;99.90;;;;;;4991816;28;20026;-75
2023/04/25 05:36:27;;;;;;;5.45;3.97;;;9.90;99.90;;;;;;4992733;28;20030;-75
2023/04/25 05:38:53;;;;;;;7.53;3.35;;;10.00;99.90;;;;;;4993298;28;20460;-74
2023/04/25 05:41:19;;;;;;;5.53;3.60;;;10.00;99.90;;;;;;4992407;28;20030;-75
2023/04/25 05:43:46;;;;;;;6.97;4.50;;;10.00;99.90;;;;;;4993061;28;20124;-73
2023/04/25 05:46:12;;;;;;;5.78;3.78;;;10.10;99.90;;;;;;4992376;28;20077;-75
2023/04/25 05:48:39;;;;;;;5.63;3.58;;;10.00;99.90;;;;;;4992013;28;20050;-75
2023/04/25 05:51:05;;;;;;;6.50;3.70;;;10.00;99.90;;;;;;4991430;28;20646;-74
2023/04/25 05:53:30;;;;;;;5.53;3.30;;;10.00;99.90;;;;;;4993426;28;20121;-74
2023/04/25 05:55:56;;;;;;;7.50;2.83;;;10.00;99.90;;;;;;4991564;28;20026;-74
2023/04/25 05:58:22;;;;;;;6.30;3.30;;;9.90;99.90;;;;;;4993654;28;20027;-74
2023/04/25 06:00:47;;;;;;;4.32;3.22;;;10.00;99.90;;;;;;4991346;28;20383;-75
2023/04/25 06:03:14;;;;;;;6.75;2.92;;;10.10;99.90;;;;;;4991707;28;20032;-74
2023/04/25 06:05:42;;;;;;;8.38;3.38;;;10.10;99.90;;;;;;4992008;28;20027;-75
2023/04/25 06:08:07;;;;;;;5.10;2.80;;;10.10;99.90;;;;;;4992021;28;20037;-74
2023/04/25 06:10:33;;;;;;;4.20;3.28;;;10.10;99.90;;;;;;4993337;28;20034;-75
2023/04/25 06:12:59;;;;;;;5.80;3.30;;;10.10;99.90;;;;;;4991178;28;20399;-74
2023/04/25 06:15:24;;;;;;;3.70;3.10;;;10.10;99.90;;;;;;4991913;28;20041;-75
2023/04/25 06:17:50;;;;;;;3.63;2.80;;;10.10;99.90;;;;;;4992711;28;20460;-74
2023/04/25 06:20:16;;;;;;;5.07;3.10;;;10.10;99.90;;;;;;4991738;28;20035;-75
2023/04/25 06:22:41;;;;;;;5.40;3.22;;;10.00;99.90;;;;;;4991542;28;20500;-75
2023/04/25 06:25:07;;;;;;;4.70;3.17;;;10.00;99.90;;;;;;4990920;28;20360;-74
2023/04/25 06:27:34;;;;;;;5.47;3.28;;;10.00;99.90;;;;;;4992061;28;20062;-74
2023/04/25 06:29:59;;;;;;;5.53;3.22;;;10.00;99.90;;;;;;4990984;28;20108;-74
2023/04/25 06:32:27;;;;;;;4.97;3.30;;;10.00;99.90;;;;;;4991696;28;20445;-74
2023/04/25 06:34:53;;;;;;;5.35;3.30;;;10.00;99.90;;;;;;4990979;28;20033;-74
2023/04/25 06:37:18;;;;;;;4.63;3.13;;;9.90;99.90;;;;;;4992177;28;20026;-75
2023/04/25 06:39:44;;;;;;;4.88;3.17;;;9.90;99.90;;;;;;4991809;28;20037;-73
2023/04/25 06:42:10;;;;;;;3.90;3.00;;;10.00;99.90;;;;;;4991313;28;20063;-76
2023/04/25 06:44:36;;;;;;;4.85;3.20;;;9.80;99.90;;;;;;4992794;28;20116;-77
2023/04/25 06:47:01;;;;;;;4.22;3.05;;;9.70;99.90;;;;;;4990994;28;20125;-77
2023/04/25 06:49:27;;;;;;;5.22;3.08;;;9.70;99.90;;;;;;4993055;28;20034;-77
2023/04/25 06:51:53;;;;;;;6.60;3.65;;;9.80;99.90;;;;;;4992000;28;20037;-76
2023/04/25 06:54:18;;;;;;;4.38;3.30;;;10.00;99.90;;;;;;4984723;28;20510;-76
2023/04/25 06:56:44;;;;;;;4.75;2.88;;;10.10;99.90;;;;;;4990702;28;20023;-77
2023/04/25 06:59:09;;;;;;;4.60;3.35;;;10.20;99.90;;;;;;4990999;28;20094;-74
2023/04/25 07:01:35;;;;;;;5.05;3.45;;;10.20;99.90;;;;;;4990807;28;20018;-74
2023/04/25 07:04:01;;;;;;;5.93;3.53;;;10.20;99.90;;;;;;4991673;28;20079;-75
2023/04/25 07:06:27;;;;;;;5.88;3.40;;;10.20;99.90;;;;;;4992279;28;20022;-74
2023/04/25 07:08:53;;;;;;;4.53;3.38;;;10.20;99.90;;;;;;4991675;28;20069;-74
2023/04/25 07:11:19;;;;;;;3.80;2.65;;;10.20;99.90;;;;;;4990260;28;20038;-75
2023/04/25 07:13:45;;;;;;;17.10;10.68;;;10.20;99.90;;;;;;4990940;28;20423;-75
2023/04/25 07:16:10;;;;;;;17.10;10.10;;;10.00;99.90;;;;;;4990303;28;20054;-74
2023/04/25 07:18:36;;;;;;;10.95;6.30;;;10.00;99.90;;;;;;4991068;28;20447;-75
2023/04/25 07:21:01;;;;;;;6.60;3.75;;;9.90;99.90;;;;;;4990061;28;20042;-74
2023/04/25 07:23:27;;;;;;;6.60;4.05;;;9.90;99.90;;;;;;4991928;28;20046;-74
2023/04/25 07:25:53;;;;;;;8.73;4.10;;;10.00;99.90;;;;;;4991067;28;20105;-74
2023/04/25 07:28:18;;;;;;;7.25;3.95;;;10.00;99.90;;;;;;4992200;28;20464;-75
2023/04/25 07:30:44;;;;;;;13.13;4.93;;;10.10;99.90;;;;;;4990742;28;20034;-75
2023/04/25 07:33:09;;;;;;;18.05;8.50;;;10.20;99.90;;;;;;4992338;28;20047;-75
2023/04/25 07:35:35;;;;;;;7.85;4.70;;;10.20;99.90;;;;;;4994585;28;20023;-75
2023/04/25 07:38:02;;;;;;;7.53;4.15;;;10.20;99.90;;;;;;4993808;28;20026;-75
2023/04/25 07:40:28;;;;;;;9.25;4.35;;;10.30;99.90;;;;;;4995464;28;20387;-74
2023/04/25 07:42:54;;;;;;;5.95;3.95;;;10.30;99.90;;;;;;4994383;28;20109;-74
2023/04/25 07:45:19;;;;;;;8.82;4.18;;;10.20;99.90;;;;;;4994254;28;20441;-75
2023/04/25 07:47:45;;;;;;;5.85;3.80;;;10.20;99.90;;;;;;4995447;28;20066;-75
2023/04/25 07:50:11;;;;;;;5.35;4.00;;;10.30;99.90;;;;;;4994354;28;20073;-75
2023/04/25 07:52:36;;;;;;;7.00;4.40;;;10.20;99.90;;;;;;4995354;28;20053;-75
2023/04/25 07:55:03;;;;;;;7.00;4.05;;;10.30;99.90;;;;;;4993194;28;20101;-75
2023/04/25 07:57:29;;;;;;;6.47;4.30;;;10.30;99.90;;;;;;4994212;28;20069;-74
2023/04/25 07:59:55;;;;;;;7.53;4.28;;;10.30;99.90;;;;;;4993266;28;20537;-75
2023/04/25 08:02:20;;;;;;;9.05;4.13;;;10.40;99.90;;;;;;4993898;28;20022;-75
2023/04/25 08:04:46;;;;;;;8.85;4.40;;;10.40;99.90;;;;;;4995236;28;20125;-75
2023/04/25 08:07:12;;;;;;;8.32;4.40;;;10.40;99.90;;;;;;4994586;28;20042;-75
2023/04/25 08:09:37;;;;;;;9.88;5.50;;;10.40;99.90;;;;;;4994012;28;20041;-75
2023/04/25 08:12:04;;;;;;;8.00;4.57;;;10.40;99.90;;;;;;4994540;28;20034;-75
2023/04/25 08:14:35;;;;;;;8.88;4.80;;;10.40;99.90;;;;;;4994894;28;20030;-75
2023/04/25 08:17:04;;;;;;;7.78;4.43;;;10.40;99.90;;;;;;4994293;28;20361;-75
2023/04/25 08:19:30;;;;;;;7.80;4.35;;;10.50;99.90;;;;;;4994638;28;20598;-75
2023/04/25 08:21:56;;;;;;;8.63;5.10;;;10.50;99.90;;;;;;4994521;28;20041;-75
2023/04/25 08:24:22;;;;;;;6.85;4.80;;;10.40;99.90;;;;;;4993423;28;20399;-75
2023/04/25 08:26:48;;;;;;;9.15;5.07;;;10.40;99.90;;;;;;4978563;28;20065;-74
2023/04/25 08:29:14;;;;;;;8.27;5.38;;;10.50;99.90;;;;;;4994480;28;20023;-75
2023/04/25 08:31:40;;;;;;;6.88;4.60;;;10.50;99.90;;;;;;4994762;28;20030;-76
2023/04/25 08:34:06;;;;;;;7.20;5.18;;;10.50;99.90;;;;;;4993625;28;20038;-75
2023/04/25 08:36:32;;;;;;;7.85;5.22;;;10.50;99.90;;;;;;4993602;28;20080;-75
2023/04/25 08:38:58;;;;;;;7.60;4.90;;;10.60;99.90;;;;;;4993716;28;20038;-75
2023/04/25 08:41:25;;;;;;;9.40;5.38;;;10.60;99.90;;;;;;4994772;28;20053;-75
2023/04/25 08:43:51;;;;;;;9.98;5.93;;;10.60;99.90;;;;;;4993343;28;20030;-74
2023/04/25 08:46:20;;;;;;;8.75;5.30;;;10.60;99.90;;;;;;4993559;28;20037;-75
2023/04/25 08:48:46;;;;;;;8.13;5.03;;;10.50;99.90;;;;;;4992970;28;20100;-75
2023/04/25 08:51:22;;;;;;;9.05;5.18;;;10.50;99.90;;;;;;4992371;28;20038;-75
2023/04/25 08:53:50;;;;;;;8.57;5.38;;;10.50;99.90;;;;;;4992845;28;20030;-75
2023/04/25 08:56:22;;;;;;;7.82;5.28;;;10.50;99.90;;;;;;4994061;28;20022;-75
2023/04/25 08:58:50;;;;;;;7.85;4.88;;;10.50;99.90;;;;;;4994187;28;20027;-75
2023/04/25 09:01:18;;;;;;;8.63;5.40;;;10.50;99.90;;;;;;4992970;28;20113;-75
2023/04/25 09:03:44;;;;;;;11.70;6.18;;;10.40;99.90;;;;;;4994031;28;20033;-75
2023/04/25 09:06:11;;;;;;;8.98;5.63;;;10.40;99.90;;;;;;4992169;28;20620;-75
2023/04/25 09:08:37;;;;;;;7.55;5.30;;;10.40;99.90;;;;;;4973444;28;20026;-75
2023/04/25 09:11:03;;;;;;;8.98;5.63;;;10.30;99.90;;;;;;4993904;28;20038;-75
2023/04/25 09:13:29;;;;;;;8.68;5.47;;;10.40;99.90;;;;;;4986357;28;20038;-75
2023/04/25 09:15:56;;;;;;;8.32;5.50;;;10.40;99.90;;;;;;4993337;28;20034;-75
2023/04/25 09:18:30;;;;;;;9.75;5.47;;;10.40;99.90;;;;;;4992107;28;20023;-75
2023/04/25 09:20:58;;;;;;;7.80;5.20;;;10.40;99.90;;;;;;4993205;28;20030;-75
2023/04/25 09:23:24;;;;;;;7.70;4.78;;;10.40;99.90;;;;;;4993292;28;20464;-75
2023/04/25 09:25:53;;;;;;;7.22;5.00;;;10.30;99.90;;;;;;4983325;28;20034;-74
2023/04/25 09:28:27;;;;;;;11.70;5.43;;;10.20;99.90;;;;;;4993651;28;20157;-75
2023/04/25 09:30:57;;;;;;;8.63;5.03;;;10.10;99.90;;;;;;4991881;28;20442;-74
2023/04/25 09:33:29;;;;;;;10.25;5.97;;;10.10;99.90;;;;;;4993516;28;20030;-75
2023/04/25 09:36:08;;;;;;;11.88;5.72;;;10.00;99.90;;;;;;4992296;28;20033;-74
2023/04/25 09:38:45;;;;;;;14.10;6.68;;;9.90;99.90;;;;;;4993430;28;20468;-75
2023/04/25 09:41:11;;;;;;;13.38;6.75;;;10.00;99.90;;;;;;4992924;28;20112;-75
2023/04/25 09:43:37;;;;;;;13.45;6.60;;;10.00;99.90;;;;;;4993255;28;20518;-75
2023/04/25 09:46:11;;;;;;;16.38;7.97;;;10.00;99.90;;;;;;4991707;28;20071;-75
2023/04/25 09:48:36;;;;;;;13.30;7.00;;;10.00;99.90;;;;;;4991776;28;20054;-75
2023/04/25 09:51:15;;;;;;;16.10;8.02;;;10.10;99.90;;;;;;4991599;28;20507;-75
2023/04/25 09:53:43;;;;;;;14.48;7.65;;;10.10;99.90;;;;;;4990315;28;20109;-74
2023/04/25 09:56:11;;;;;;;13.82;7.38;;;10.00;99.90;;;;;;4985230;28;20105;-75
2023/04/25 09:58:38;;;;;;;13.90;7.70;;;9.70;99.90;;;;;;4993099;28;20054;-75
2023/04/25 10:01:09;;;;;;;15.82;7.53;;;9.70;99.90;;;;;;4992500;28;20466;-75
2023/04/25 10:03:39;;;;;;;14.73;7.18;;;9.90;99.90;;;;;;4993163;28;20113;-75
2023/04/25 10:06:14;;;;;;;17.45;8.18;;;10.10;99.90;;;;;;4992081;28;20548;-75
2023/04/25 10:08:41;;;;;;;13.90;7.40;;;10.10;99.90;;;;;;4989580;28;20029;-75
2023/04/25 10:11:08;;;;;;;12.55;6.82;;;10.20;99.90;;;;;;4990933;28;20112;-75
2023/04/25 10:13:35;;;;;;;12.88;7.15;;;10.30;99.90;;;;;;4992919;28;20034;-75
2023/04/25 10:16:03;;;;;;;12.75;7.05;;;10.30;99.90;;;;;;4990711;28;20085;-75
2023/04/25 10:18:30;;;;;;;15.02;7.18;;;10.50;99.90;;;;;;4992937;28;20101;-75
2023/04/25 10:20:58;;;;;;;13.27;7.03;;;10.50;99.90;;;;;;4974965;28;20037;-75
2023/04/25 10:23:24;;;;;;;12.98;5.95;;;10.70;99.90;;;;;;4993148;28;20415;-75
2023/04/25 10:25:54;;;;;;;13.88;6.90;;;10.80;99.90;;;;;;4990369;28;20081;-75
2023/04/25 10:28:20;;;;;;;11.43;5.55;;;10.90;99.90;;;;;;4991768;28;20027;-75
2023/04/25 10:31:07;;;;;;;10.27;5.63;;;11.00;99.90;;;;;;4992585;28;20038;-75
2023/04/25 10:33:38;;;;;;;13.43;5.60;;;11.00;99.90;;;;;;4991396;28;20085;-75
2023/04/25 10:36:17;;;;;;;23.80;10.43;;;11.10;99.90;;;;;;4990576;28;20034;-75
2023/04/25 10:38:44;;;;;;;15.90;6.50;;;10.90;99.90;;;;;;4992644;28;20040;-75
2023/04/25 10:41:11;;;;;;;12.00;5.57;;;10.80;99.90;;;;;;4990550;28;20825;-75
2023/04/25 10:43:41;;;;;;;13.32;5.70;;;10.90;99.90;;;;;;5007773;28;20092;-75
2023/04/25 10:46:23;;;;;;;13.50;6.18;;;11.00;99.90;;;;;;4991782;28;20486;-76
2023/04/25 10:48:53;;;;;;;10.40;5.00;;;11.00;99.90;;;;;;4990874;28;20054;-75
2023/04/25 10:51:30;;;;;;;9.45;5.15;;;10.80;99.90;;;;;;4992616;28;20474;-75
2023/04/25 10:54:07;;;;;;;10.35;5.40;;;10.80;99.90;;;;;;4989857;28;20150;-75
2023/04/25 10:56:40;;;;;;;13.85;5.78;;;10.80;99.90;;;;;;4991096;28;20387;-75
2023/04/25 10:59:11;;;;;;;12.95;5.38;;;10.80;99.90;;;;;;4990860;28;20030;-75
2023/04/25 11:01:48;;;;;;;13.52;5.93;;;10.70;99.90;;;;;;4991710;28;20034;-76
2023/04/25 11:04:22;;;;;;;12.45;6.13;;;10.70;99.90;;;;;;4990731;28;20398;-76
2023/04/25 11:07:45;;;;;;;15.60;5.80;;;10.60;99.90;;;;;;4991002;28;20031;-75
2023/04/25 11:10:11;;;;;;;8.05;4.45;;;10.60;99.90;;;;;;4944868;29;20855;-75
2023/04/25 11:12:36;;;;;;;10.88;4.70;;;10.40;99.90;;;;;;4971177;28;20114;-75
2023/04/25 11:15:07;;;;;;;10.02;4.03;;;10.40;99.90;;;;;;4940603;29;20048;-75
2023/04/25 11:17:33;;;;;;;8.75;4.07;;;10.40;99.90;;;;;;4936302;28;20089;-75
2023/04/25 11:19:59;;;;;;;6.60;3.85;;;10.40;99.90;;;;;;4946357;29;20538;-75
2023/04/25 11:22:27;;;;;;;7.47;3.80;;;10.30;99.90;;;;;;4970613;28;20039;-75
2023/04/25 11:24:52;;;;;;;8.85;3.90;;;10.20;99.90;;;;;;4941675;28;20377;-75
2023/04/25 11:27:18;;;;;;;8.35;4.03;;;10.20;99.90;;;;;;4967900;28;20041;-75
2023/04/25 11:29:44;;;;;;;9.77;4.22;;;10.20;99.90;;;;;;4942306;29;20031;-75
2023/04/25 11:32:10;;;;;;;6.78;3.72;;;10.10;99.90;;;;;;4950972;28;20066;-75
2023/04/25 11:34:35;;;;;;;9.75;4.00;;;10.20;99.90;;;;;;4973265;28;20039;-75
2023/04/25 11:37:02;;;;;;;7.93;3.92;;;10.10;99.90;;;;;;4957672;28;20508;-75
2023/04/25 11:39:28;;;;;;;8.98;4.15;;;10.10;99.90;;;;;;4954180;28;20040;-75
2023/04/25 11:41:55;;;;;;;7.70;4.30;;;10.00;99.90;;;;;;4995036;28;20396;-76
2023/04/25 11:44:21;;;;;;;8.25;4.82;;;10.10;99.90;;;;;;4994465;28;20387;-75
2023/04/25 11:46:47;;;;;;;8.05;4.15;;;10.00;99.90;;;;;;4994086;28;20029;-75
2023/04/25 11:49:17;;;;;;;11.05;5.00;;;10.10;99.90;;;;;;4992821;28;20050;-75
2023/04/25 11:51:46;;;;;;;8.27;4.80;;;10.00;99.90;;;;;;4995934;28;20066;-75
2023/04/25 11:54:12;;;;;;;9.07;4.28;;;9.90;99.90;;;;;;4990363;28;20027;-76
2023/04/25 11:56:42;;;;;;;15.18;5.30;;;9.90;99.90;;;;;;4994073;28;20430;-76
2023/04/25 11:59:07;;;;;;;12.98;5.43;;;9.90;99.90;;;;;;4994973;28;20451;-75
2023/04/25 12:01:36;;;;;;;10.52;4.63;;;9.90;99.90;;;;;;4995464;28;20065;-75
2023/04/25 12:04:20;;;;;;;9.00;4.35;;;10.00;99.90;;;;;;4994670;28;20672;-74
2023/04/25 12:06:47;;;;;;;10.82;4.90;;;9.90;99.90;;;;;;4995239;28;20483;-75
2023/04/25 12:09:15;;;;;;;8.93;4.53;;;10.00;99.90;;;;;;4994675;28;20377;-75
2023/04/25 12:12:02;;;;;;;7.85;4.30;;;10.20;99.90;;;;;;4995109;28;20030;-75
2023/04/25 12:14:35;;;;;;;11.63;4.93;;;10.50;99.90;;;;;;4993856;28;20038;-75
2023/04/25 12:17:03;;;;;;;7.65;4.03;;;10.80;99.90;;;;;;4993018;28;20113;-75
2023/04/25 12:19:34;;;;;;;6.63;3.97;;;10.80;99.90;;;;;;4992863;28;20060;-75
2023/04/25 12:22:02;;;;;;;6.68;3.30;;;11.00;99.90;;;;;;4977230;28;20081;-75
2023/04/25 12:24:28;;;;;;;6.05;3.42;;;11.10;99.90;;;;;;4985384;28;20146;-75
2023/04/25 12:27:04;;;;;;;6.25;3.47;;;11.20;99.90;;;;;;4993908;28;20113;-75
2023/04/25 12:29:32;;;;;;;6.07;2.97;;;11.50;99.90;;;;;;4993641;28;20026;-74
2023/04/25 12:31:58;;;;;;;8.68;3.63;;;11.60;99.90;;;;;;4992930;28;20030;-75
2023/04/25 12:34:24;;;;;;;8.25;3.13;;;11.80;99.90;;;;;;4993443;28;20468;-75
2023/04/25 12:36:51;;;;;;;6.38;3.33;;;11.90;99.90;;;;;;4994160;28;20023;-76
2023/04/25 12:39:21;;;;;;;5.80;3.53;;;11.90;99.90;;;;;;4993928;28;20030;-75
2023/04/25 12:41:48;;;;;;;5.30;3.30;;;11.80;99.90;;;;;;4993411;28;20088;-76
2023/04/25 12:44:14;;;;;;;3.50;2.65;;;11.80;99.90;;;;;;4992518;28;20045;-75
2023/04/25 12:46:40;;;;;;;8.20;3.20;;;11.80;99.90;;;;;;4993278;28;20464;-75
2023/04/25 12:49:08;;;;;;;7.85;3.13;;;11.80;99.90;;;;;;4992278;28;20042;-76